createdAt,value
2023-01-04T00:02:29.351Z,39.25
2023-01-04T00:04:59.460Z,40.00
2023-01-04T00:07:30.335Z,39.25
2023-01-04T00:09:59.177Z,41.00
2023-01-04T00:12:28.406Z,42.25
2023-01-04T00:14:57.020Z,39.25
2023-01-04T00:17:25.854Z,41.50
2023-01-04T00:19:54.443Z,41.00
2023-01-04T00:22:24.822Z,38.25
2023-01-04T00:24:53.418Z,39.25
2023-01-04T00:27:22.299Z,40.00
2023-01-04T00:29:50.879Z,38.50
2023-01-04T00:32:19.931Z,39.00
2023-01-04T00:34:48.845Z,32.25
2023-01-04T00:37:17.765Z,41.75
2023-01-04T00:39:47.705Z,42.25
2023-01-04T00:42:16.568Z,39.50
2023-01-04T00:44:45.150Z,42.75
2023-01-04T00:47:14.005Z,41.50
2023-01-04T00:49:42.581Z,38.25
2023-01-04T00:52:11.551Z,38.25
2023-01-04T00:54:40.126Z,34.25
2023-01-04T00:57:10.428Z,37.00
2023-01-04T00:59:39.105Z,42.00
2023-01-04T01:02:08.543Z,38.25
2023-01-04T01:04:37.828Z,38.67
2023-01-04T01:07:06.712Z,35.75
2023-01-04T01:09:35.549Z,36.50
2023-01-04T01:12:04.509Z,35.25
2023-01-04T01:14:34.448Z,35.75
2023-01-04T01:17:04.265Z,37.50
2023-01-04T01:19:33.214Z,38.25
2023-01-04T01:22:02.340Z,37.25
2023-01-04T01:24:31.026Z,34.50
2023-01-04T01:26:59.919Z,35.50
2023-01-04T01:29:28.639Z,40.00
2023-01-04T01:31:59.037Z,38.00
2023-01-04T01:34:27.639Z,37.50
2023-01-04T01:36:56.650Z,39.75
2023-01-04T01:39:25.215Z,39.50
2023-01-04T01:41:54.268Z,38.25
2023-01-04T01:45:11.335Z,32.75
2023-01-04T01:47:46.285Z,37.25
2023-01-04T01:50:27.870Z,40.00
2023-01-04T01:52:59.249Z,36.75
2023-01-04T01:55:30.254Z,40.25
2023-01-04T01:58:01.331Z,39.00
2023-01-04T02:00:31.472Z,38.50
2023-01-04T02:03:20.126Z,40.50
2023-01-04T02:05:53.021Z,36.50
2023-01-04T02:08:25.479Z,37.25
2023-01-04T02:10:54.182Z,39.00
2023-01-04T02:13:46.960Z,39.25
2023-01-04T02:16:23.564Z,37.75
2023-01-04T02:19:03.018Z,36.50
2023-01-04T02:21:44.817Z,38.75
2023-01-04T02:24:41.569Z,37.75
2023-01-04T02:27:39.472Z,37.00
2023-01-04T02:30:40.241Z,38.50
2023-01-04T02:33:30.034Z,39.00
2023-01-04T02:36:07.755Z,36.50
2023-01-04T02:38:49.028Z,38.25
2023-01-04T02:41:29.266Z,36.25
2023-01-04T02:44:23.542Z,42.25
2023-01-04T02:47:00.115Z,40.00
2023-01-04T02:49:47.924Z,39.25
2023-01-04T02:52:17.361Z,38.00
2023-01-04T02:54:48.346Z,38.00
2023-01-04T02:57:40.407Z,37.50
2023-01-04T03:00:23.088Z,37.25
2023-01-04T03:03:30.623Z,36.75
2023-01-04T03:06:19.075Z,41.00
2023-01-04T03:09:00.402Z,37.50
2023-01-04T03:11:56.816Z,41.25
2023-01-04T03:14:33.329Z,40.25
2023-01-04T03:17:05.151Z,40.25
2023-01-04T03:19:54.960Z,34.00
2023-01-04T03:22:49.226Z,37.25
2023-01-04T03:25:41.225Z,38.00
2023-01-04T03:28:31.242Z,32.25
2023-01-04T03:31:22.777Z,38.75
2023-01-04T03:34:08.913Z,37.50
2023-01-04T03:36:49.136Z,33.75
2023-01-04T03:39:46.621Z,37.50
2023-01-04T03:42:39.362Z,33.50
2023-01-04T03:45:33.566Z,35.75
2023-01-04T03:48:29.299Z,34.25
2023-01-04T03:51:04.691Z,29.75
2023-01-04T03:53:37.576Z,32.25
2023-01-04T03:56:09.930Z,30.00
2023-01-04T03:58:39.613Z,36.75
2023-01-04T04:01:08.899Z,35.75
2023-01-04T04:03:55.629Z,37.75
2023-01-04T04:06:41.756Z,33.00
2023-01-04T04:09:10.621Z,34.50
2023-01-04T04:11:40.590Z,33.00
2023-01-04T04:14:09.423Z,32.20
2023-01-04T04:16:38.052Z,34.50
2023-01-04T04:19:08.988Z,34.00
2023-01-04T04:21:38.303Z,36.00
2023-01-04T04:24:08.055Z,36.50
2023-01-04T04:26:36.645Z,34.50
2023-01-04T04:29:07.011Z,39.75
2023-01-04T04:31:35.764Z,39.50
2023-01-04T04:34:04.912Z,51.75
2023-01-04T04:36:33.519Z,73.75
2023-01-04T04:39:02.361Z,65.00
2023-01-04T04:41:38.976Z,42.00
2023-01-04T04:44:11.316Z,32.75
2023-01-04T04:46:40.387Z,36.50
2023-01-04T04:49:09.916Z,35.50
2023-01-04T04:51:39.242Z,37.25
2023-01-04T04:54:09.341Z,37.25
2023-01-04T04:56:38.950Z,40.00
2023-01-04T04:59:09.332Z,55.50
2023-01-04T05:01:38.273Z,62.67
2023-01-04T05:04:07.533Z,45.25
2023-01-04T05:06:36.409Z,41.50
2023-01-04T05:09:05.281Z,35.00
2023-01-04T05:11:52.310Z,41.50
2023-01-04T05:14:22.590Z,40.00
2023-01-04T05:16:51.196Z,44.75
2023-01-04T05:19:20.126Z,51.50
2023-01-04T05:21:48.715Z,44.00
2023-01-04T05:24:17.665Z,44.25
2023-01-04T05:26:46.347Z,42.25
2023-01-04T05:29:35.534Z,41.25
2023-01-04T05:32:05.151Z,45.50
2023-01-04T05:34:34.092Z,107.25
2023-01-04T05:37:02.653Z,46.25
2023-01-04T05:39:31.562Z,43.25
2023-01-04T05:42:17.694Z,69.00
2023-01-04T05:44:46.500Z,50.50
2023-01-04T05:47:16.495Z,46.25
2023-01-04T05:49:45.421Z,126.00
2023-01-04T05:52:14.122Z,49.00
2023-01-04T05:54:42.902Z,46.75
2023-01-04T05:57:12.124Z,47.00
2023-01-04T05:59:42.277Z,43.75
2023-01-04T06:02:17.906Z,47.25
2023-01-04T06:04:51.545Z,46.75
2023-01-04T06:07:24.030Z,49.00
2023-01-04T06:09:52.855Z,51.00
2023-01-04T06:12:21.652Z,49.00
2023-01-04T06:14:50.526Z,38.50
2023-01-04T06:17:20.877Z,49.25
2023-01-04T06:19:49.875Z,43.75
2023-01-04T06:22:18.570Z,47.50
2023-01-04T06:24:47.452Z,50.75
2023-01-04T06:27:16.311Z,50.25
2023-01-04T06:29:45.548Z,44.50
2023-01-04T06:32:14.261Z,49.50
2023-01-04T06:34:44.972Z,51.25
2023-01-04T06:37:13.571Z,53.00
2023-01-04T06:39:42.491Z,40.75
2023-01-04T06:42:31.515Z,51.25
2023-01-04T06:45:00.373Z,52.00
2023-01-04T06:47:28.883Z,51.75
2023-01-04T06:49:59.113Z,48.25
2023-01-04T06:52:27.979Z,51.50
2023-01-04T06:54:56.936Z,52.00
2023-01-04T06:57:25.498Z,51.00
2023-01-04T06:59:54.560Z,51.25
2023-01-04T07:02:23.302Z,52.25
2023-01-04T07:04:52.246Z,53.75
2023-01-04T07:07:22.262Z,52.25
2023-01-04T07:09:51.145Z,48.50
2023-01-04T07:12:19.638Z,52.00
2023-01-04T07:14:48.492Z,49.75
2023-01-04T07:17:17.082Z,47.50
2023-01-04T07:19:45.940Z,52.25
2023-01-04T07:22:14.599Z,49.25
2023-01-04T07:24:44.897Z,38.50
2023-01-04T07:27:13.702Z,49.00
2023-01-04T07:29:44.366Z,49.75
2023-01-04T07:32:14.214Z,49.75
2023-01-04T07:34:43.934Z,49.50
2023-01-04T07:37:13.227Z,54.00
2023-01-04T07:39:42.363Z,47.25
2023-01-04T07:42:12.846Z,55.25
2023-01-04T07:44:41.884Z,50.75
2023-01-04T07:47:10.466Z,53.25
2023-01-04T07:49:39.343Z,53.50
2023-01-04T07:52:07.949Z,54.25
2023-01-04T07:54:37.270Z,53.75
2023-01-04T07:57:05.945Z,57.50
2023-01-04T07:59:36.616Z,57.75
2023-01-04T08:02:05.538Z,54.50
2023-01-04T08:04:35.535Z,53.00
2023-01-04T08:07:04.425Z,53.00
2023-01-04T08:09:33.385Z,55.50
2023-01-04T08:12:02.731Z,53.00
2023-01-04T08:14:31.589Z,54.00
2023-01-04T08:17:01.573Z,53.25
2023-01-04T08:19:30.579Z,54.00
2023-01-04T08:21:59.787Z,53.25
2023-01-04T08:24:28.741Z,61.33
2023-01-04T08:26:57.754Z,55.00
2023-01-04T08:29:31.111Z,53.50
2023-01-04T08:32:05.140Z,55.00
2023-01-04T08:34:34.154Z,53.25
2023-01-04T08:37:02.872Z,55.00
2023-01-04T08:39:35.537Z,55.50
2023-01-04T08:42:18.831Z,54.00
2023-01-04T08:44:52.886Z,56.50
2023-01-04T08:47:25.714Z,55.50
2023-01-04T08:49:54.554Z,56.00
2023-01-04T08:52:23.178Z,56.50
2023-01-04T08:54:52.023Z,55.75
2023-01-04T08:57:20.878Z,55.50
2023-01-04T08:59:49.760Z,56.50
2023-01-04T09:02:22.828Z,55.00
2023-01-04T09:04:54.259Z,57.00
2023-01-04T09:07:22.946Z,54.00
2023-01-04T09:09:51.827Z,55.50
2023-01-04T09:12:20.402Z,56.75
2023-01-04T09:14:49.325Z,63.00
2023-01-04T09:17:17.878Z,58.00
2023-01-04T09:19:46.690Z,56.50
2023-01-04T09:22:16.738Z,57.75
2023-01-04T09:24:45.635Z,56.00
2023-01-04T09:27:14.225Z,55.00
2023-01-04T09:29:43.653Z,55.50
2023-01-04T09:32:16.465Z,56.50
2023-01-04T09:34:46.517Z,52.75
2023-01-04T09:37:16.555Z,54.50
2023-01-04T09:39:45.793Z,60.00
2023-01-04T09:42:22.719Z,57.00
2023-01-04T09:45:22.985Z,59.25
2023-01-04T09:47:51.263Z,61.67
2023-01-04T09:50:23.997Z,59.00
2023-01-04T09:53:06.111Z,57.25
2023-01-04T09:55:41.310Z,56.50
2023-01-04T09:58:23.008Z,55.50
2023-01-04T10:01:00.556Z,56.75
2023-01-04T10:03:32.840Z,58.75
2023-01-04T10:06:02.768Z,57.25
2023-01-04T10:08:33.210Z,58.25
2023-01-04T10:11:17.261Z,57.75
2023-01-04T10:14:11.873Z,57.75
2023-01-04T10:17:12.777Z,59.00
2023-01-04T10:23:18.200Z,55.00
2023-01-04T10:25:56.060Z,45.00
2023-01-04T10:28:39.934Z,56.25
2023-01-04T10:31:38.637Z,59.25
2023-01-04T10:34:19.249Z,52.75
2023-01-04T10:36:49.004Z,52.50
2023-01-04T10:39:19.990Z,57.25
2023-01-04T10:41:55.782Z,62.25
2023-01-04T10:44:31.971Z,55.25
2023-01-04T10:47:09.554Z,57.33
2023-01-04T10:49:45.763Z,62.75
2023-01-04T10:52:19.626Z,58.00
2023-01-04T10:54:53.294Z,55.75
2023-01-04T10:57:32.188Z,53.75
2023-01-04T11:00:05.393Z,53.00
2023-01-04T11:02:43.010Z,49.50
2023-01-04T11:05:21.362Z,52.25
2023-01-04T11:07:55.611Z,56.25
2023-01-04T11:10:29.337Z,54.00
2023-01-04T11:12:59.548Z,54.75
2023-01-04T11:15:29.662Z,49.75
2023-01-04T11:17:59.811Z,49.25
2023-01-04T11:20:32.901Z,51.25
2023-01-04T11:23:09.115Z,50.75
2023-01-04T11:25:42.443Z,46.75
2023-01-04T11:28:19.114Z,49.75
2023-01-04T11:30:55.505Z,56.25
2023-01-04T11:33:25.417Z,55.00
2023-01-04T11:35:57.070Z,52.00
2023-01-04T11:38:27.848Z,52.25
2023-01-04T11:41:00.302Z,52.25
2023-01-04T11:43:31.608Z,56.00
2023-01-04T11:46:04.126Z,48.50
2023-01-04T11:48:41.866Z,52.25
2023-01-04T11:51:20.983Z,48.50
2023-01-04T11:53:59.442Z,54.00
2023-01-04T11:56:30.396Z,51.50
2023-01-04T11:59:22.666Z,50.75
2023-01-04T12:02:28.882Z,53.75
2023-01-04T12:05:03.420Z,51.50
2023-01-04T12:07:34.956Z,48.00
2023-01-04T12:10:20.123Z,51.75
2023-01-04T12:12:49.458Z,52.00
2023-01-04T12:15:27.119Z,52.75
2023-01-04T12:18:01.012Z,48.50
2023-01-04T12:20:30.782Z,48.50
2023-01-04T12:22:59.606Z,52.00
2023-01-04T12:25:35.495Z,45.25
2023-01-04T12:28:04.617Z,48.25
2023-01-04T12:30:41.994Z,47.00
2023-01-04T12:33:39.596Z,45.00
2023-01-04T12:36:09.808Z,45.50
2023-01-04T12:38:59.439Z,41.75
2023-01-04T12:42:21.652Z,41.25
2023-01-04T12:45:24.164Z,42.75
2023-01-04T12:48:12.754Z,43.75
2023-01-04T12:51:34.651Z,44.00
2023-01-04T12:54:04.423Z,42.00
2023-01-04T12:57:10.549Z,40.75
2023-01-04T12:59:40.541Z,45.25
2023-01-04T13:02:18.102Z,42.75
2023-01-04T13:04:49.360Z,40.75
2023-01-04T13:07:22.569Z,40.25
2023-01-04T13:09:58.091Z,40.75
2023-01-04T13:12:51.968Z,43.25
2023-01-04T13:15:26.140Z,43.25
2023-01-04T13:17:55.459Z,39.50
2023-01-04T13:20:28.992Z,41.50
2023-01-04T13:22:59.911Z,43.50
2023-01-04T13:25:28.633Z,40.25
2023-01-04T13:28:00.759Z,42.50
2023-01-04T13:30:35.700Z,37.50
2023-01-04T13:33:26.250Z,41.00
2023-01-04T13:36:04.485Z,37.75
2023-01-04T13:38:35.635Z,39.50
2023-01-04T13:41:19.357Z,39.25
2023-01-04T13:43:58.796Z,39.50
2023-01-04T13:46:28.036Z,35.00
2023-01-04T13:49:03.473Z,36.75
2023-01-04T13:51:37.720Z,36.00
2023-01-04T13:54:18.418Z,41.75
2023-01-04T13:56:54.990Z,41.75
2023-01-04T13:59:24.637Z,41.50
2023-01-04T14:01:53.437Z,38.50
2023-01-04T14:04:26.933Z,36.25
2023-01-04T14:07:00.358Z,38.75
2023-01-04T14:09:32.811Z,46.75
2023-01-04T14:12:14.795Z,39.00
2023-01-04T14:14:51.098Z,29.75
2023-01-04T14:17:27.664Z,38.75
2023-01-04T14:19:58.287Z,40.00
2023-01-04T14:22:40.283Z,39.50
2023-01-04T14:25:40.804Z,37.25
2023-01-04T14:28:30.131Z,33.50
2023-01-04T14:31:15.380Z,37.00
2023-01-04T14:33:46.513Z,36.00
2023-01-04T14:36:21.894Z,31.00
2023-01-04T14:38:59.344Z,35.50
2023-01-04T14:41:33.500Z,38.75
2023-01-04T14:44:11.319Z,36.50
2023-01-04T14:46:41.915Z,37.75
2023-01-04T14:49:11.230Z,36.00
2023-01-04T14:51:44.384Z,38.00
2023-01-04T14:54:22.174Z,38.00
2023-01-04T14:56:53.893Z,39.00
2023-01-04T14:59:24.399Z,40.25
2023-01-04T15:01:54.037Z,42.25
2023-01-04T15:04:23.066Z,35.75
2023-01-04T15:06:54.286Z,43.00
2023-01-04T15:09:24.369Z,44.00
2023-01-04T15:11:53.582Z,41.00
2023-01-04T15:14:22.136Z,41.75
2023-01-04T15:16:51.745Z,43.25
2023-01-04T15:19:20.347Z,39.50
2023-01-04T15:21:49.364Z,42.25
2023-01-04T15:24:18.007Z,43.00
2023-01-04T15:26:49.207Z,46.25
2023-01-04T15:29:17.964Z,43.00
2023-01-04T15:31:46.941Z,47.50
2023-01-04T15:34:15.599Z,48.75
2023-01-04T15:36:44.522Z,46.00
2023-01-04T15:39:15.278Z,49.25
2023-01-04T15:42:02.039Z,52.00
2023-01-04T15:44:32.075Z,53.75
2023-01-04T15:47:00.992Z,49.50
2023-01-04T15:49:31.597Z,53.75
2023-01-04T15:52:00.742Z,56.00
2023-01-04T15:54:29.946Z,79.75
2023-01-04T15:56:59.544Z,51.50
2023-01-04T15:59:28.209Z,55.67
2023-01-04T16:01:58.626Z,27.00
2023-01-04T16:04:29.008Z,53.25
2023-01-04T16:06:58.101Z,58.25
2023-01-04T16:09:26.785Z,60.00
2023-01-04T16:12:12.954Z,67.75
2023-01-04T16:14:41.593Z,62.50
2023-01-04T16:17:11.845Z,75.00
2023-01-04T16:19:40.380Z,116.50
2023-01-04T16:22:09.380Z,75.50
2023-01-04T16:25:09.267Z,64.75
2023-01-04T16:27:33.115Z,70.75
2023-01-04T16:30:04.493Z,68.75
2023-01-04T16:32:35.777Z,61.75
2023-01-04T16:35:04.858Z,66.75
2023-01-04T16:37:34.061Z,85.25
2023-01-04T16:40:07.186Z,62.25
2023-01-04T16:42:37.961Z,63.67
2023-01-04T16:45:07.788Z,77.50
2023-01-04T16:47:46.078Z,76.00
2023-01-04T16:50:15.248Z,92.75
2023-01-04T16:52:44.164Z,62.00
2023-01-04T16:55:12.812Z,61.67
2023-01-04T16:57:41.818Z,60.50
2023-01-04T17:00:11.576Z,59.00
2023-01-04T17:02:41.802Z,59.00
2023-01-04T17:05:10.764Z,61.00
2023-01-04T17:07:39.941Z,60.00
2023-01-04T17:10:09.345Z,66.33
2023-01-04T17:12:47.566Z,71.50
2023-01-04T17:18:08.445Z,68.50
2023-01-04T17:20:37.989Z,87.50
2023-01-04T17:23:07.714Z,72.75
2023-01-04T17:25:36.369Z,82.00
2023-01-04T17:28:05.686Z,63.75
2023-01-04T17:30:34.203Z,67.00
2023-01-04T17:33:03.210Z,64.75
2023-01-04T17:35:36.369Z,73.50
2023-01-04T17:38:05.992Z,76.75
2023-01-04T17:40:35.987Z,94.50
2023-01-04T17:43:05.380Z,79.00
2023-01-04T17:45:34.402Z,94.50
2023-01-04T17:48:03.681Z,88.50
2023-01-04T17:50:34.209Z,98.50
2023-01-04T17:53:03.108Z,85.50
2023-01-04T17:55:31.679Z,82.00
2023-01-04T17:58:03.284Z,87.00
2023-01-04T18:00:34.695Z,78.25
2023-01-04T18:03:04.237Z,72.75
2023-01-04T18:05:45.022Z,64.25
2023-01-04T18:08:21.348Z,68.75
2023-01-04T18:11:06.832Z,70.75
2023-01-04T18:13:38.393Z,71.75
2023-01-04T18:16:23.749Z,72.25
2023-01-04T18:18:54.294Z,70.00
2023-01-04T18:21:28.928Z,66.00
2023-01-04T18:29:38.526Z,63.00
2023-01-04T18:32:07.157Z,70.25
2023-01-04T18:34:36.227Z,69.00
2023-01-04T18:37:06.352Z,69.25
2023-01-04T18:39:35.216Z,70.50
2023-01-04T18:42:03.870Z,82.75
2023-01-04T18:44:34.460Z,79.75
2023-01-04T18:47:04.027Z,64.00
2023-01-04T18:49:33.237Z,61.00
2023-01-04T18:52:01.975Z,61.67
2023-01-04T18:54:32.267Z,62.33
2023-01-04T18:57:01.884Z,60.67
2023-01-04T18:59:30.844Z,63.33
2023-01-04T19:02:01.939Z,62.00
2023-01-04T19:04:33.029Z,58.75
2023-01-04T19:07:02.373Z,56.00
2023-01-04T19:09:32.708Z,62.00
2023-01-04T19:12:01.320Z,62.67
2023-01-04T19:14:30.115Z,63.75
2023-01-04T19:16:58.711Z,81.50
2023-01-04T19:19:27.722Z,67.50
2023-01-04T19:21:56.341Z,101.25
2023-01-04T19:24:25.611Z,73.00
2023-01-04T19:27:02.591Z,80.75
2023-01-04T19:29:32.367Z,63.00
2023-01-04T19:32:01.010Z,75.75
2023-01-04T19:34:30.166Z,84.25
2023-01-04T19:36:58.702Z,79.75
2023-01-04T19:39:27.597Z,75.75
2023-01-04T19:41:57.522Z,66.00
2023-01-04T19:44:26.536Z,77.25
2023-01-04T19:46:55.189Z,94.25
2023-01-04T19:49:24.078Z,110.25
2023-01-04T19:51:52.647Z,93.25
2023-01-04T19:54:25.196Z,100.50
2023-01-04T19:56:54.704Z,98.50
2023-01-04T19:59:25.129Z,96.75
2023-01-04T20:01:54.061Z,85.50
2023-01-04T20:04:23.441Z,103.75
2023-01-04T20:06:52.246Z,103.75
2023-01-04T20:09:25.913Z,128.75
2023-01-04T20:11:55.218Z,142.75
2023-01-04T20:14:25.587Z,128.25
2023-01-04T20:16:54.340Z,123.50
2023-01-04T20:19:23.384Z,117.75
2023-01-04T20:21:51.882Z,145.75
2023-01-04T20:24:20.874Z,135.00
2023-01-04T20:26:49.489Z,120.25
2023-01-04T20:29:18.431Z,124.50
2023-01-04T20:31:48.458Z,119.25
2023-01-04T20:34:17.456Z,125.00
2023-01-04T20:36:46.132Z,111.50
2023-01-04T20:39:15.099Z,129.50
2023-01-04T20:42:03.626Z,133.00
2023-01-04T20:44:31.750Z,125.50
2023-01-04T20:47:01.716Z,119.50
2023-01-04T20:49:31.040Z,99.75
2023-01-04T20:51:59.904Z,110.50
2023-01-04T20:54:28.844Z,104.00
2023-01-04T20:56:57.366Z,93.75
2023-01-04T20:59:26.211Z,122.00
2023-01-04T21:01:55.068Z,90.75
2023-01-04T21:04:25.798Z,93.25
2023-01-04T21:06:54.400Z,92.75
2023-01-04T21:09:23.890Z,73.25
2023-01-04T21:11:53.985Z,69.50
2023-01-04T21:14:25.726Z,138.00
2023-01-04T21:16:54.280Z,112.00
2023-01-04T21:19:25.988Z,65.00
2023-01-04T21:21:56.109Z,81.75
2023-01-04T21:24:25.042Z,74.00
2023-01-04T21:26:53.595Z,101.50
2023-01-04T21:29:22.477Z,81.50
2023-01-04T21:31:51.081Z,82.25
2023-01-04T21:34:23.038Z,77.25
2023-01-04T21:36:51.963Z,62.67
2023-01-04T21:39:22.230Z,65.33
2023-01-04T21:41:51.316Z,66.00
2023-01-04T21:44:20.512Z,65.00
2023-01-04T21:46:49.292Z,105.50
2023-01-04T21:49:18.263Z,125.00
2023-01-04T21:51:46.824Z,90.50
2023-01-04T21:54:15.708Z,95.75
2023-01-04T21:56:46.490Z,94.00
2023-01-04T21:59:15.556Z,89.50
2023-01-04T22:01:44.439Z,95.25
2023-01-04T22:04:13.394Z,92.50
2023-01-04T22:06:42.201Z,82.75
2023-01-04T22:09:11.106Z,84.25
2023-01-04T22:11:40.965Z,92.25
2023-01-04T22:14:11.263Z,98.00
2023-01-04T22:16:40.473Z,101.75
2023-01-04T22:19:12.465Z,85.00
2023-01-04T22:21:41.698Z,71.50
2023-01-04T22:24:12.996Z,63.75
2023-01-04T22:26:43.173Z,62.33
2023-01-04T22:29:13.527Z,90.50
2023-01-04T22:31:42.275Z,106.75
2023-01-04T22:34:11.165Z,65.67
2023-01-04T22:36:39.860Z,64.00
2023-01-04T22:39:08.797Z,52.00
2023-01-04T22:41:40.252Z,55.25
2023-01-04T22:44:09.190Z,58.25
2023-01-04T22:46:39.154Z,58.75
2023-01-04T22:49:08.266Z,59.33
2023-01-04T22:51:36.891Z,59.00
2023-01-04T22:54:06.676Z,59.25
2023-01-04T22:56:35.265Z,57.67
2023-01-04T22:59:04.082Z,50.00
2023-01-04T23:01:34.380Z,48.75
2023-01-04T23:04:05.344Z,41.25
2023-01-04T23:06:34.317Z,39.25
2023-01-04T23:09:05.650Z,55.25
2023-01-04T23:11:35.794Z,51.75
2023-01-04T23:14:06.411Z,44.75
2023-01-04T23:16:35.115Z,43.75
2023-01-04T23:19:06.999Z,50.50
2023-01-04T23:21:36.619Z,51.50
2023-01-04T23:24:06.285Z,61.67
2023-01-04T23:26:35.703Z,64.00
2023-01-04T23:29:04.639Z,83.50
2023-01-04T23:31:33.911Z,47.50
2023-01-04T23:34:07.453Z,83.25
2023-01-04T23:36:38.175Z,72.50
2023-01-04T23:39:10.650Z,56.75
2023-01-04T23:41:45.876Z,55.00
2023-01-04T23:44:20.090Z,49.75
2023-01-04T23:46:53.284Z,44.00
2023-01-04T23:49:24.869Z,46.75
2023-01-04T23:51:53.795Z,44.75
2023-01-04T23:54:23.619Z,44.75
2023-01-04T23:56:52.733Z,46.25
2023-01-04T23:59:22.520Z,42.25
